Time;durP1;ratioP1;P1;durP2;ratioP2;P2;SDS_P1;SDS_P2;PMS_P1;PMS_P2;Temp;Humidity;BMP_temperature;BMP_pressure;BME280_temperature;BME280_humidity;BME280_pressure;Samples;Min_cycle;Max_cycle;Signal;HPM_P1;HPM_P2
2023/09/06 00:01:33;;;;;;;0.20;0.20;;;20.30;99.90;;;;;;5046473;28;20041;-83
2023/09/06 00:03:59;;;;;;;0.20;0.20;;;20.30;99.90;;;;;;5043472;28;20044;-83
2023/09/06 00:06:24;;;;;;;0.20;0.20;;;20.30;99.90;;;;;;5048638;28;20045;-83
2023/09/06 00:08:52;;;;;;;0.20;0.20;;;20.30;99.90;;;;;;5024983;28;20045;-82
2023/09/06 00:11:21;;;;;;;0.20;0.20;;;20.30;99.90;;;;;;5035894;28;20041;-82
2023/09/06 00:13:46;;;;;;;0.20;0.20;;;20.20;99.90;;;;;;5030676;28;20144;-83
2023/09/06 00:16:12;;;;;;;0.20;0.20;;;20.20;99.90;;;;;;5040397;28;20068;-83
2023/09/06 00:18:38;;;;;;;0.17;0.17;;;20.10;99.90;;;;;;5049525;28;20183;-82
2023/09/06 00:21:05;;;;;;;0.20;0.20;;;20.10;99.90;;;;;;5030642;28;20864;-83
2023/09/06 00:23:32;;;;;;;0.20;0.20;;;20.00;99.90;;;;;;5031498;28;20608;-83
2023/09/06 00:25:58;;;;;;;0.20;0.20;;;20.00;99.90;;;;;;5047443;28;20124;-83
2023/09/06 00:28:27;;;;;;;0.17;0.17;;;20.00;99.90;;;;;;5039108;28;20532;-83
2023/09/06 00:30:57;;;;;;;0.20;0.20;;;20.00;99.90;;;;;;5030334;28;20060;-83
2023/09/06 00:33:26;;;;;;;0.20;0.20;;;19.90;99.90;;;;;;5040176;28;20057;-83
2023/09/06 00:35:52;;;;;;;0.20;0.20;;;19.90;99.90;;;;;;5046365;28;20091;-83
2023/09/06 00:38:20;;;;;;;0.20;0.20;;;19.90;99.90;;;;;;5048740;28;20044;-83
2023/09/06 00:40:51;;;;;;;0.20;0.20;;;19.90;99.90;;;;;;5027078;28;20057;-83
2023/09/06 00:43:17;;;;;;;0.20;0.20;;;19.90;99.90;;;;;;5012223;28;20049;-83
2023/09/06 00:45:44;;;;;;;0.20;0.20;;;19.90;99.90;;;;;;5030144;28;20049;-82
2023/09/06 00:48:17;;;;;;;0.20;0.20;;;19.90;99.90;;;;;;5029873;28;20122;-82
2023/09/06 00:50:43;;;;;;;0.10;0.10;;;19.90;99.90;;;;;;5045865;28;20053;-83
2023/09/06 00:53:09;;;;;;;0.20;0.20;;;19.90;99.90;;;;;;5042833;28;20029;-83
2023/09/06 00:55:37;;;;;;;0.20;0.20;;;19.90;99.90;;;;;;5025127;28;20040;-83
2023/09/06 00:58:07;;;;;;;0.20;0.20;;;19.80;99.90;;;;;;5042534;28;20386;-83
2023/09/06 01:00:33;;;;;;;0.20;0.20;;;19.80;99.90;;;;;;5046754;28;20512;-83
2023/09/06 01:02:59;;;;;;;0.20;0.20;;;19.80;99.90;;;;;;5046126;28;20041;-83
2023/09/06 01:05:31;;;;;;;0.20;0.20;;;19.80;99.90;;;;;;5028256;28;20544;-82
2023/09/06 01:08:01;;;;;;;0.20;0.20;;;19.80;99.90;;;;;;5046651;28;20072;-83
2023/09/06 01:10:27;;;;;;;0.20;0.20;;;19.70;99.90;;;;;;5040412;28;20132;-83
2023/09/06 01:12:55;;;;;;;0.15;0.15;;;19.70;99.90;;;;;;5051001;28;20110;-83
2023/09/06 01:15:22;;;;;;;0.20;0.20;;;19.70;99.90;;;;;;5026667;28;20160;-83
2023/09/06 01:17:49;;;;;;;0.20;0.20;;;19.70;99.90;;;;;;5030406;28;20531;-83
2023/09/06 01:20:26;;;;;;;0.20;0.20;;;19.70;99.90;;;;;;5029050;28;20040;-82
2023/09/06 01:23:09;;;;;;;0.20;0.20;;;19.70;99.90;;;;;;5028946;28;20060;-82
2023/09/06 01:25:34;;;;;;;0.20;0.20;;;19.70;99.90;;;;;;5029312;28;20083;-82
2023/09/06 01:28:00;;;;;;;0.20;0.20;;;19.60;99.90;;;;;;5032486;28;20083;-82
2023/09/06 01:30:29;;;;;;;0.20;0.20;;;19.60;99.90;;;;;;5033964;28;20612;-82
2023/09/06 01:32:56;;;;;;;0.20;0.20;;;19.60;99.90;;;;;;5030627;28;20083;-82
2023/09/06 01:35:21;;;;;;;0.20;0.20;;;19.50;99.90;;;;;;5029865;28;20067;-82
2023/09/06 01:37:50;;;;;;;0.20;0.20;;;19.50;99.90;;;;;;5050544;28;20592;-82
2023/09/06 01:40:19;;;;;;;0.20;0.20;;;19.50;99.90;;;;;;5048829;28;20393;-81
2023/09/06 01:42:46;;;;;;;0.20;0.20;;;19.50;99.90;;;;;;5030437;28;20125;-82
2023/09/06 01:45:14;;;;;;;0.20;0.20;;;19.50;99.90;;;;;;5032796;28;20048;-82
2023/09/06 01:47:40;;;;;;;0.20;0.20;;;19.50;99.90;;;;;;5032605;28;20493;-82
2023/09/06 01:50:06;;;;;;;0.20;0.20;;;19.40;99.90;;;;;;5032318;28;20091;-83
2023/09/06 01:52:32;;;;;;;0.20;0.20;;;19.40;99.90;;;;;;5031608;28;20041;-82
2023/09/06 01:54:57;;;;;;;0.20;0.20;;;19.30;99.90;;;;;;5050439;28;20040;-82
2023/09/06 01:57:23;;;;;;;0.20;0.20;;;19.30;99.90;;;;;;5049335;28;20115;-83
2023/09/06 01:59:50;;;;;;;0.20;0.20;;;19.30;99.90;;;;;;5050916;28;20039;-82
2023/09/06 02:02:16;;;;;;;0.20;0.20;;;19.30;99.90;;;;;;5045618;28;20045;-81
2023/09/06 02:04:42;;;;;;;0.20;0.20;;;19.20;99.90;;;;;;5031773;28;20428;-82
2023/09/06 02:07:07;;;;;;;0.20;0.20;;;19.20;99.90;;;;;;5031341;28;20051;-82
2023/09/06 02:09:33;;;;;;;0.20;0.20;;;19.20;99.90;;;;;;5047383;28;20037;-82
2023/09/06 02:11:59;;;;;;;0.20;0.20;;;19.20;99.90;;;;;;5033394;28;20044;-81
2023/09/06 02:14:25;;;;;;;0.20;0.20;;;19.10;99.90;;;;;;5034842;28;20033;-82
2023/09/06 02:16:50;;;;;;;0.20;0.20;;;19.10;99.90;;;;;;5031883;28;20077;-82
2023/09/06 02:19:16;;;;;;;0.20;0.20;;;19.00;99.90;;;;;;5043359;28;20088;-82
2023/09/06 02:21:42;;;;;;;0.20;0.20;;;19.00;99.90;;;;;;5031963;28;20045;-82
2023/09/06 02:24:08;;;;;;;0.20;0.20;;;19.00;99.90;;;;;;5032563;28;20044;-82
2023/09/06 02:26:34;;;;;;;0.20;0.20;;;19.00;99.90;;;;;;5034244;28;20119;-82
2023/09/06 02:29:00;;;;;;;0.20;0.20;;;19.00;99.90;;;;;;5031753;28;20041;-82
2023/09/06 02:31:26;;;;;;;0.20;0.20;;;18.90;99.90;;;;;;5032644;28;20603;-82
2023/09/06 02:33:52;;;;;;;0.20;0.20;;;18.90;99.90;;;;;;5051079;28;20060;-82
2023/09/06 02:36:18;;;;;;;0.20;0.20;;;18.90;99.90;;;;;;5030658;28;20045;-82
2023/09/06 02:38:44;;;;;;;0.20;0.20;;;18.90;99.90;;;;;;5048202;28;20048;-82
2023/09/06 02:41:10;;;;;;;0.20;0.20;;;18.90;99.90;;;;;;5050734;28;20454;-82
2023/09/06 02:43:37;;;;;;;0.10;0.10;;;18.90;99.90;;;;;;5050171;28;20045;-82
2023/09/06 02:46:03;;;;;;;0.20;0.20;;;18.90;99.90;;;;;;5049307;28;20122;-82
2023/09/06 02:48:29;;;;;;;0.20;0.20;;;18.80;99.90;;;;;;5050226;28;20099;-81
2023/09/06 02:50:58;;;;;;;0.20;0.20;;;18.80;99.90;;;;;;5031152;28;20476;-82
2023/09/06 02:53:26;;;;;;;0.20;0.20;;;18.80;99.90;;;;;;5049868;28;20386;-82
2023/09/06 02:55:53;;;;;;;0.20;0.20;;;18.80;99.90;;;;;;5050162;28;20071;-82
2023/09/06 02:58:23;;;;;;;0.20;0.20;;;18.70;99.90;;;;;;5032237;28;20045;-82
2023/09/06 03:00:57;;;;;;;0.20;0.20;;;18.70;99.90;;;;;;5050640;28;20480;-82
2023/09/06 03:03:27;;;;;;;0.20;0.20;;;18.70;99.90;;;;;;5044256;28;20060;-83
2023/09/06 03:05:56;;;;;;;0.20;0.20;;;18.60;99.90;;;;;;5025881;28;20052;-82
2023/09/06 03:08:25;;;;;;;0.20;0.20;;;18.60;99.90;;;;;;5031608;28;20037;-81
2023/09/06 03:10:52;;;;;;;0.20;0.20;;;18.50;99.90;;;;;;5046453;28;20073;-81
2023/09/06 03:13:20;;;;;;;0.20;0.20;;;18.50;99.90;;;;;;5048131;28;20159;-81
2023/09/06 03:15:46;;;;;;;0.20;0.20;;;18.40;99.90;;;;;;5022289;28;20054;-82
2023/09/06 03:18:12;;;;;;;0.20;0.20;;;18.40;99.90;;;;;;5024735;28;20869;-82
2023/09/06 03:20:43;;;;;;;0.20;0.20;;;18.40;99.90;;;;;;5030769;28;20037;-82
2023/09/06 03:23:19;;;;;;;0.20;0.20;;;18.30;99.90;;;;;;5047031;28;20041;-81
2023/09/06 03:25:49;;;;;;;0.10;0.10;;;18.30;99.90;;;;;;5032068;28;20041;-82
2023/09/06 03:28:18;;;;;;;0.20;0.20;;;18.20;99.90;;;;;;5049373;28;20045;-82
2023/09/06 03:30:44;;;;;;;0.20;0.20;;;18.20;99.90;;;;;;5032164;28;20334;-82
2023/09/06 03:33:10;;;;;;;0.20;0.20;;;18.20;99.90;;;;;;5031756;28;20040;-82
2023/09/06 03:35:36;;;;;;;0.20;0.20;;;18.20;99.90;;;;;;5045081;28;20944;-82
2023/09/06 03:38:10;;;;;;;0.20;0.20;;;18.20;99.90;;;;;;5050821;28;20068;-82
2023/09/06 03:40:37;;;;;;;0.20;0.20;;;18.20;99.90;;;;;;5030278;28;20041;-83
2023/09/06 03:43:16;;;;;;;0.20;0.20;;;18.20;99.90;;;;;;5046457;28;20048;-82
2023/09/06 03:45:55;;;;;;;0.20;0.20;;;18.20;99.90;;;;;;5046535;28;20405;-82
2023/09/06 03:48:23;;;;;;;0.20;0.20;;;18.10;99.90;;;;;;5030281;28;20115;-82
2023/09/06 03:50:55;;;;;;;0.20;0.20;;;18.10;99.90;;;;;;5042200;28;20481;-82
2023/09/06 03:53:23;;;;;;;0.20;0.20;;;18.10;99.90;;;;;;5024909;28;20041;-82
2023/09/06 03:55:50;;;;;;;0.20;0.20;;;18.10;99.90;;;;;;5048986;28;20040;-82
2023/09/06 03:58:15;;;;;;;0.20;0.20;;;18.10;99.90;;;;;;5048560;28;20048;-82
2023/09/06 04:00:44;;;;;;;0.20;0.20;;;18.10;99.90;;;;;;5048136;28;20028;-82
2023/09/06 04:03:14;;;;;;;0.20;0.20;;;18.10;99.90;;;;;;5028951;28;20037;-81
2023/09/06 04:05:40;;;;;;;0.20;0.20;;;18.10;99.90;;;;;;5026428;28;20057;-82
2023/09/06 04:08:09;;;;;;;0.20;0.20;;;18.10;99.90;;;;;;5031311;28;20438;-82
2023/09/06 04:10:36;;;;;;;0.20;0.20;;;18.10;99.90;;;;;;5030434;28;20045;-82
2023/09/06 04:13:10;;;;;;;0.20;0.20;;;18.10;99.90;;;;;;5047920;28;20037;-82
2023/09/06 04:15:37;;;;;;;0.20;0.20;;;18.10;99.90;;;;;;5023762;28;20045;-82
2023/09/06 04:18:05;;;;;;;0.10;0.10;;;18.00;99.90;;;;;;5047526;28;20557;-82
2023/09/06 04:20:35;;;;;;;0.22;0.22;;;18.00;99.90;;;;;;5024322;28;20060;-81
2023/09/06 04:23:04;;;;;;;0.20;0.20;;;18.00;99.90;;;;;;5049168;28;20071;-81
2023/09/06 04:25:41;;;;;;;0.20;0.20;;;18.00;99.90;;;;;;5044889;28;20057;-82
2023/09/06 04:28:08;;;;;;;0.20;0.20;;;17.90;99.90;;;;;;5049913;28;20045;-82
2023/09/06 04:30:36;;;;;;;0.20;0.20;;;17.90;99.90;;;;;;5030521;28;20469;-82
2023/09/06 04:33:10;;;;;;;0.20;0.20;;;17.90;99.90;;;;;;5049521;28;20116;-82
2023/09/06 04:35:42;;;;;;;0.20;0.20;;;17.90;99.90;;;;;;5030710;28;20418;-82
2023/09/06 04:38:12;;;;;;;0.20;0.20;;;17.80;99.90;;;;;;5030590;28;20040;-82
2023/09/06 04:40:38;;;;;;;0.20;0.20;;;17.90;99.90;;;;;;5028843;28;20497;-82
2023/09/06 04:43:07;;;;;;;0.20;0.20;;;17.90;99.90;;;;;;5041260;28;20048;-84
2023/09/06 04:45:37;;;;;;;0.20;0.20;;;17.90;99.90;;;;;;5040233;28;20071;-82
2023/09/06 04:48:08;;;;;;;0.20;0.20;;;17.80;99.90;;;;;;5044081;28;20056;-82
2023/09/06 04:50:37;;;;;;;0.20;0.20;;;17.80;99.90;;;;;;5029721;28;20044;-82
2023/09/06 04:53:03;;;;;;;0.20;0.20;;;17.80;99.90;;;;;;5049292;28;20156;-82
2023/09/06 04:55:33;;;;;;;0.20;0.20;;;17.80;99.90;;;;;;5024237;28;20124;-83
2023/09/06 04:58:00;;;;;;;0.10;0.10;;;17.80;99.90;;;;;;5046319;28;20080;-82
2023/09/06 05:00:30;;;;;;;0.20;0.20;;;17.80;99.90;;;;;;5029673;28;20069;-83
2023/09/06 05:02:57;;;;;;;0.20;0.20;;;17.80;99.90;;;;;;5046203;28;20047;-83
2023/09/06 05:05:24;;;;;;;0.20;0.20;;;17.80;99.90;;;;;;5028105;28;20060;-82
2023/09/06 05:07:50;;;;;;;0.20;0.20;;;17.80;99.90;;;;;;5048929;28;20045;-83
2023/09/06 05:10:16;;;;;;;0.20;0.20;;;17.70;99.90;;;;;;5027537;28;20500;-82
2023/09/06 05:12:42;;;;;;;0.20;0.20;;;17.70;99.90;;;;;;5044456;28;20186;-83
2023/09/06 05:15:12;;;;;;;0.20;0.20;;;17.80;99.90;;;;;;5021284;28;20042;-83
2023/09/06 05:17:39;;;;;;;0.20;0.20;;;17.80;99.90;;;;;;5011762;28;20045;-82
2023/09/06 05:20:35;;;;;;;0.20;0.20;;;17.80;99.90;;;;;;5047127;28;20033;-81
2023/09/06 05:23:05;;;;;;;0.20;0.20;;;17.80;99.90;;;;;;5047540;28;20519;-82
2023/09/06 05:25:33;;;;;;;0.20;0.20;;;17.80;99.90;;;;;;5030633;28;20083;-83
2023/09/06 05:28:14;;;;;;;0.20;0.20;;;17.80;99.90;;;;;;5047917;28;20041;-82
2023/09/06 05:30:43;;;;;;;0.20;0.20;;;17.80;99.90;;;;;;5041684;28;20048;-82
2023/09/06 05:33:10;;;;;;;0.20;0.20;;;17.80;99.90;;;;;;5046989;28;20044;-82
2023/09/06 05:35:36;;;;;;;0.20;0.20;;;17.90;99.90;;;;;;5049004;28;20653;-83
2023/09/06 05:38:05;;;;;;;0.20;0.20;;;17.80;99.90;;;;;;5042062;28;20087;-82
2023/09/06 05:40:33;;;;;;;0.20;0.20;;;17.90;99.90;;;;;;5047335;28;20051;-82
2023/09/06 05:42:59;;;;;;;0.20;0.20;;;17.90;99.90;;;;;;5046615;28;20051;-82
2023/09/06 05:45:26;;;;;;;0.20;0.20;;;17.90;99.90;;;;;;5043534;28;20033;-82
2023/09/06 05:47:52;;;;;;;0.20;0.20;;;17.90;99.90;;;;;;5024042;28;20045;-82
2023/09/06 05:50:19;;;;;;;0.20;0.20;;;18.00;99.90;;;;;;5041089;28;20041;-82
2023/09/06 05:52:44;;;;;;;0.20;0.20;;;18.00;99.90;;;;;;5041272;28;20041;-82
2023/09/06 05:55:10;;;;;;;0.20;0.20;;;18.00;99.90;;;;;;5027383;28;20048;-82
2023/09/06 05:57:37;;;;;;;0.20;0.20;;;18.00;99.90;;;;;;5046781;28;20456;-82
2023/09/06 06:00:12;;;;;;;0.20;0.20;;;18.00;99.90;;;;;;5048124;28;20455;-82
2023/09/06 06:02:38;;;;;;;0.20;0.20;;;18.10;99.90;;;;;;5048169;28;20053;-82
2023/09/06 06:05:04;;;;;;;0.20;0.20;;;18.10;99.90;;;;;;5044420;28;20133;-82
2023/09/06 06:07:30;;;;;;;0.20;0.20;;;18.10;99.90;;;;;;5028587;28;20108;-83
2023/09/06 06:09:55;;;;;;;0.20;0.20;;;18.20;99.90;;;;;;5048632;28;20431;-82
2023/09/06 06:12:22;;;;;;;0.20;0.20;;;18.30;99.90;;;;;;5033835;28;20033;-82
2023/09/06 06:14:51;;;;;;;0.20;0.20;;;18.50;99.90;;;;;;5032738;28;20048;-82
2023/09/06 06:17:18;;;;;;;0.20;0.20;;;18.60;99.90;;;;;;5045998;28;20080;-81
2023/09/06 06:19:44;;;;;;;0.20;0.20;;;18.60;99.90;;;;;;5049594;28;20574;-82
2023/09/06 06:22:11;;;;;;;0.20;0.20;;;18.60;99.90;;;;;;5027611;28;20057;-81
2023/09/06 06:24:37;;;;;;;0.20;0.20;;;18.60;99.90;;;;;;5031806;28;20052;-82
2023/09/06 06:27:04;;;;;;;0.20;0.20;;;18.60;99.90;;;;;;5051685;28;20056;-82
2023/09/06 06:29:29;;;;;;;0.20;0.20;;;18.70;99.90;;;;;;5044737;28;20049;-82
2023/09/06 06:31:55;;;;;;;0.15;0.15;;;18.70;99.90;;;;;;5042211;28;20481;-82
2023/09/06 06:34:21;;;;;;;0.20;0.20;;;18.70;99.90;;;;;;5033424;28;20455;-81
2023/09/06 06:36:47;;;;;;;0.20;0.20;;;18.70;99.90;;;;;;5049533;28;20041;-82
2023/09/06 06:39:14;;;;;;;0.20;0.20;;;18.80;99.90;;;;;;5034829;28;20053;-81
2023/09/06 06:41:41;;;;;;;0.20;0.20;;;18.80;99.90;;;;;;5030151;28;20033;-81
2023/09/06 06:44:06;;;;;;;0.20;0.20;;;18.80;99.90;;;;;;5029530;28;20067;-82
2023/09/06 06:46:34;;;;;;;0.20;0.20;;;18.80;99.90;;;;;;5030522;28;20045;-82
2023/09/06 06:49:02;;;;;;;0.20;0.20;;;18.80;99.90;;;;;;5030607;28;20090;-82
2023/09/06 06:51:35;;;;;;;0.20;0.20;;;18.90;99.90;;;;;;5025801;28;20067;-82
2023/09/06 06:54:02;;;;;;;0.20;0.20;;;18.90;99.90;;;;;;5028619;28;20033;-82
2023/09/06 06:56:27;;;;;;;0.20;0.20;;;18.90;99.90;;;;;;5028307;28;20052;-81
2023/09/06 06:58:53;;;;;;;0.20;0.20;;;19.00;99.90;;;;;;5028098;28;20562;-81
2023/09/06 07:01:24;;;;;;;0.20;0.20;;;19.00;99.90;;;;;;5048025;28;20077;-82
2023/09/06 07:03:50;;;;;;;0.20;0.20;;;19.00;99.90;;;;;;5051007;28;20562;-81
2023/09/06 07:06:16;;;;;;;0.20;0.20;;;19.10;99.90;;;;;;5033373;28;20069;-81
2023/09/06 07:08:42;;;;;;;0.20;0.20;;;19.10;99.90;;;;;;5044867;28;20084;-82
2023/09/06 07:11:07;;;;;;;0.20;0.20;;;19.20;99.90;;;;;;5044774;28;20048;-82
2023/09/06 07:13:34;;;;;;;0.20;0.20;;;19.30;99.90;;;;;;5031363;28;20036;-82
2023/09/06 07:16:00;;;;;;;0.10;0.10;;;19.30;99.90;;;;;;5047578;28;20076;-82
2023/09/06 07:18:26;;;;;;;0.20;0.20;;;19.30;99.90;;;;;;5032054;28;20061;-82
2023/09/06 07:20:52;;;;;;;0.20;0.20;;;19.40;99.90;;;;;;5030389;28;20411;-81
2023/09/06 07:23:17;;;;;;;0.20;0.20;;;19.50;99.90;;;;;;5046722;28;20116;-82
2023/09/06 07:25:49;;;;;;;0.20;0.20;;;19.50;99.90;;;;;;5048187;28;20052;-81
2023/09/06 07:28:15;;;;;;;0.20;0.20;;;19.60;99.90;;;;;;5033206;28;20083;-81
2023/09/06 07:30:42;;;;;;;0.20;0.20;;;19.70;99.90;;;;;;5045908;28;20061;-81
2023/09/06 07:33:08;;;;;;;0.20;0.20;;;19.70;99.90;;;;;;5028771;28;20435;-82
2023/09/06 07:35:33;;;;;;;0.20;0.20;;;19.80;99.90;;;;;;5038670;28;20041;-81
2023/09/06 07:38:00;;;;;;;0.20;0.20;;;19.80;99.90;;;;;;5029636;28;21472;-82
2023/09/06 07:40:26;;;;;;;0.20;0.20;;;20.00;99.90;;;;;;5021961;28;20053;-82
2023/09/06 07:42:52;;;;;;;0.20;0.20;;;20.00;99.90;;;;;;5025795;28;20052;-82
2023/09/06 07:45:19;;;;;;;0.20;0.20;;;20.10;99.90;;;;;;5029592;28;20096;-80
2023/09/06 07:47:44;;;;;;;0.20;0.20;;;20.20;99.90;;;;;;5021109;28;20075;-80
2023/09/06 07:50:10;;;;;;;0.20;0.20;;;20.30;99.90;;;;;;5025654;28;20072;-80
2023/09/06 07:52:37;;;;;;;0.20;0.20;;;20.30;99.90;;;;;;5047939;28;20033;-80
2023/09/06 07:55:04;;;;;;;0.15;0.15;;;20.40;99.90;;;;;;5024728;28;20055;-81
2023/09/06 07:57:29;;;;;;;0.20;0.20;;;20.50;99.90;;;;;;5047643;28;20048;-81
2023/09/06 07:59:55;;;;;;;0.20;0.20;;;20.60;99.90;;;;;;5041269;28;20036;-81
2023/09/06 08:02:22;;;;;;;0.20;0.20;;;20.70;99.90;;;;;;5028587;28;20036;-82
2023/09/06 08:04:47;;;;;;;0.20;0.20;;;20.70;99.90;;;;;;5029213;28;20513;-82
2023/09/06 08:07:13;;;;;;;0.20;0.20;;;20.80;99.90;;;;;;5021617;28;20052;-81
2023/09/06 08:09:39;;;;;;;0.20;0.20;;;20.90;99.90;;;;;;5038833;28;20036;-81
2023/09/06 08:12:07;;;;;;;0.10;0.10;;;21.00;99.90;;;;;;5025365;28;20044;-79
2023/09/06 08:14:33;;;;;;;0.13;0.13;;;21.10;99.90;;;;;;5029991;28;20044;-79
2023/09/06 08:16:59;;;;;;;0.20;0.20;;;21.20;99.90;;;;;;5031308;28;20492;-79
2023/09/06 08:19:25;;;;;;;0.20;0.20;;;21.20;99.90;;;;;;5044394;28;20043;-78
2023/09/06 08:21:51;;;;;;;0.20;0.20;;;21.30;99.90;;;;;;5044357;28;20048;-78
2023/09/06 08:24:18;;;;;;;0.20;0.20;;;21.40;99.90;;;;;;5025554;28;20108;-78
2023/09/06 08:26:45;;;;;;;0.20;0.20;;;21.50;99.90;;;;;;5050138;28;20064;-78
2023/09/06 08:29:11;;;;;;;0.20;0.20;;;21.60;99.90;;;;;;5032032;28;20041;-78
2023/09/06 08:31:37;;;;;;;0.20;0.20;;;21.60;99.90;;;;;;5049800;28;20041;-78
2023/09/06 08:34:02;;;;;;;0.20;0.20;;;21.80;99.90;;;;;;5032065;28;20063;-78
2023/09/06 08:36:28;;;;;;;0.20;0.20;;;21.80;99.90;;;;;;5030848;28;20076;-78
2023/09/06 08:38:53;;;;;;;0.20;0.20;;;21.90;99.90;;;;;;5017725;28;20041;-78
2023/09/06 08:41:20;;;;;;;0.20;0.20;;;22.00;99.90;;;;;;5032062;28;20090;-78
2023/09/06 08:43:47;;;;;;;0.20;0.20;;;22.10;99.90;;;;;;5032011;28;20048;-78
2023/09/06 08:46:33;;;;;;;0.20;0.20;;;22.20;99.90;;;;;;5031278;28;20520;-78
2023/09/06 08:49:00;;;;;;;0.20;0.20;;;22.30;99.90;;;;;;5049335;28;20403;-78
2023/09/06 08:51:31;;;;;;;0.20;0.20;;;22.30;99.90;;;;;;5029652;28;20400;-79
2023/09/06 08:53:58;;;;;;;0.20;0.20;;;22.50;99.90;;;;;;5050832;28;20049;-78
2023/09/06 08:56:24;;;;;;;0.20;0.20;;;22.50;99.90;;;;;;5046492;28;20091;-78
2023/09/06 08:58:50;;;;;;;0.20;0.20;;;22.60;99.90;;;;;;5049788;28;20045;-78
2023/09/06 09:01:15;;;;;;;0.20;0.20;;;22.70;99.90;;;;;;5049075;28;20067;-78
2023/09/06 09:03:42;;;;;;;0.20;0.20;;;22.80;99.90;;;;;;5048060;28;20057;-78
2023/09/06 09:06:09;;;;;;;0.20;0.20;;;22.90;99.90;;;;;;5030562;28;20053;-78
2023/09/06 09:08:35;;;;;;;0.20;0.20;;;23.00;99.90;;;;;;5032844;28;20451;-78
2023/09/06 09:11:08;;;;;;;0.20;0.20;;;23.10;99.90;;;;;;5045997;28;20029;-78
2023/09/06 09:13:34;;;;;;;0.20;0.20;;;23.20;99.90;;;;;;5050672;28;20045;-78
2023/09/06 09:15:59;;;;;;;0.20;0.20;;;23.30;99.90;;;;;;5029613;28;20068;-79
2023/09/06 09:18:28;;;;;;;0.20;0.20;;;23.40;99.90;;;;;;5045564;28;20048;-77
2023/09/06 09:20:57;;;;;;;0.20;0.20;;;23.40;99.90;;;;;;5030373;28;20063;-79
2023/09/06 09:23:22;;;;;;;0.20;0.20;;;23.50;99.90;;;;;;5024231;28;20048;-78
2023/09/06 09:25:49;;;;;;;0.20;0.20;;;23.60;99.90;;;;;;5047333;28;20394;-79
2023/09/06 09:28:15;;;;;;;0.20;0.20;;;23.70;99.90;;;;;;5049809;28;20067;-78
2023/09/06 09:30:41;;;;;;;0.20;0.20;;;23.70;99.90;;;;;;5030120;28;20372;-79
2023/09/06 09:33:07;;;;;;;0.20;0.20;;;23.70;99.90;;;;;;5048080;28;20041;-79
2023/09/06 09:35:33;;;;;;;0.25;0.25;;;23.80;99.90;;;;;;5048499;28;20146;-78
2023/09/06 09:38:01;;;;;;;0.20;0.20;;;23.80;99.90;;;;;;5028962;28;20037;-78
2023/09/06 09:40:33;;;;;;;0.20;0.20;;;23.90;99.90;;;;;;5028239;28;20037;-79
2023/09/06 09:43:02;;;;;;;0.20;0.20;;;24.00;99.90;;;;;;5016903;28;20034;-78
2023/09/06 09:45:31;;;;;;;0.20;0.20;;;24.10;99.90;;;;;;5036829;28;20045;-78
2023/09/06 09:47:57;;;;;;;0.20;0.20;;;24.20;99.90;;;;;;5034317;28;20397;-79
2023/09/06 09:50:26;;;;;;;0.20;0.20;;;24.30;99.90;;;;;;5052487;28;20100;-79
2023/09/06 09:52:52;;;;;;;0.20;0.20;;;24.30;99.90;;;;;;5052965;28;20167;-80
2023/09/06 09:55:22;;;;;;;0.20;0.20;;;24.40;99.90;;;;;;5034992;28;20453;-79
2023/09/06 09:57:48;;;;;;;0.20;0.20;;;24.50;99.90;;;;;;5050078;28;20049;-78
2023/09/06 10:00:15;;;;;;;0.20;0.20;;;24.50;99.90;;;;;;5036427;28;20041;-78
2023/09/06 10:02:45;;;;;;;0.20;0.20;;;24.70;99.90;;;;;;5051834;28;20103;-78
2023/09/06 10:05:19;;;;;;;0.20;0.20;;;24.70;99.90;;;;;;5039074;28;20053;-79
2023/09/06 10:07:47;;;;;;;0.20;0.20;;;24.80;99.90;;;;;;5029992;28;20049;-78
2023/09/06 10:10:13;;;;;;;0.20;0.20;;;24.90;99.90;;;;;;5032011;28;20044;-78
2023/09/06 10:12:47;;;;;;;0.20;0.20;;;25.00;99.90;;;;;;5048781;28;20558;-79
2023/09/06 10:15:13;;;;;;;0.20;0.20;;;25.10;99.90;;;;;;5040179;28;20090;-78
2023/09/06 10:17:40;;;;;;;0.20;0.20;;;25.20;99.90;;;;;;5034869;28;20052;-79
2023/09/06 10:20:15;;;;;;;0.20;0.20;;;25.30;99.90;;;;;;5034044;28;20094;-79
2023/09/06 10:22:46;;;;;;;0.20;0.20;;;25.40;99.90;;;;;;5052645;28;20081;-78
2023/09/06 10:25:14;;;;;;;;;;;25.40;99.90;;;;;;5034781;28;20048;-78
2023/09/06 10:27:50;;;;;;;0.20;0.20;;;25.50;99.90;;;;;;5034108;28;19929;-78
2023/09/06 10:30:28;;;;;;;0.20;0.20;;;25.70;99.90;;;;;;5022136;28;20520;-77
2023/09/06 10:32:54;;;;;;;0.20;0.20;;;25.70;99.90;;;;;;5030264;28;20082;-78
2023/09/06 10:35:30;;;;;;;0.20;0.20;;;25.80;99.90;;;;;;5051200;28;20029;-78
2023/09/06 10:38:19;;;;;;;0.20;0.20;;;25.90;99.90;;;;;;5034503;28;20056;-78
2023/09/06 10:40:49;;;;;;;0.20;0.20;;;26.00;99.90;;;;;;5028410;28;20045;-79
2023/09/06 10:43:16;;;;;;;0.20;0.20;;;26.10;99.90;;;;;;5047866;28;20450;-79
2023/09/06 10:46:18;;;;;;;0.22;0.22;;;26.20;99.90;;;;;;5032032;28;20048;-78
2023/09/06 10:49:23;;;;;;;0.20;0.20;;;26.30;99.90;;;;;;5033380;28;20052;-79
2023/09/06 10:52:11;;;;;;;0.20;0.20;;;26.40;99.90;;;;;;5026305;28;20049;-79
2023/09/06 10:54:44;;;;;;;0.20;0.20;;;26.50;99.90;;;;;;5031511;28;20513;-79
2023/09/06 10:57:14;;;;;;;0.20;0.20;;;26.50;99.90;;;;;;5031631;28;20068;-79
2023/09/06 10:59:57;;;;;;;0.20;0.20;;;26.60;99.90;;;;;;5032592;28;20148;-79
2023/09/06 11:02:23;;;;;;;0.20;0.20;;;26.60;99.90;;;;;;5031838;28;20057;-80
2023/09/06 11:04:49;;;;;;;0.20;0.20;;;26.80;99.90;;;;;;5050467;28;20176;-79
2023/09/06 11:07:15;;;;;;;0.20;0.20;;;26.80;99.90;;;;;;5033123;28;20049;-78
2023/09/06 11:09:43;;;;;;;0.20;0.20;;;26.90;99.90;;;;;;5022282;28;20155;-80
2023/09/06 11:12:13;;;;;;;0.20;0.20;;;26.90;99.90;;;;;;5033788;28;20130;-78
2023/09/06 11:14:47;;;;;;;0.20;0.20;;;27.10;99.90;;;;;;5050059;28;20065;-78
2023/09/06 11:17:20;;;;;;;0.20;0.20;;;27.20;99.90;;;;;;5028045;28;20065;-78
2023/09/06 11:19:47;;;;;;;0.20;0.20;;;27.20;99.90;;;;;;5038849;28;20060;-78
2023/09/06 11:22:13;;;;;;;0.20;0.20;;;27.30;99.90;;;;;;5042786;28;20045;-78
2023/09/06 11:24:39;;;;;;;0.20;0.20;;;27.40;99.90;;;;;;5039264;28;20049;-78
2023/09/06 11:27:22;;;;;;;0.20;0.20;;;27.40;99.90;;;;;;5041698;28;20041;-77
2023/09/06 11:29:57;;;;;;;0.20;0.20;;;27.60;99.90;;;;;;5027421;28;20051;-78
2023/09/06 11:32:23;;;;;;;0.20;0.20;;;27.70;99.90;;;;;;5032280;28;20622;-78
2023/09/06 11:34:49;;;;;;;0.40;0.30;;;27.80;99.90;;;;;;5032411;28;20129;-78
2023/09/06 11:37:15;;;;;;;0.20;0.20;;;27.90;99.90;;;;;;5050653;28;20084;-78
2023/09/06 11:39:45;;;;;;;0.20;0.20;;;28.10;99.90;;;;;;5051234;28;20041;-78
2023/09/06 11:42:15;;;;;;;0.20;0.20;;;28.20;99.90;;;;;;5048424;28;20052;-78
2023/09/06 11:44:50;;;;;;;0.20;0.20;;;28.40;99.90;;;;;;5049330;28;20028;-78
2023/09/06 11:47:23;;;;;;;0.20;0.20;;;28.50;99.90;;;;;;5050622;28;20055;-78
2023/09/06 11:49:49;;;;;;;0.20;0.20;;;28.60;99.90;;;;;;5049535;28;20045;-78
2023/09/06 11:52:19;;;;;;;0.20;0.20;;;28.80;99.90;;;;;;5048630;28;20396;-78
2023/09/06 11:54:49;;;;;;;0.20;0.20;;;28.80;99.90;;;;;;5015605;28;20610;-78
2023/09/06 11:57:30;;;;;;;0.20;0.20;;;29.00;99.90;;;;;;5045122;28;20136;-78
2023/09/06 11:59:59;;;;;;;;;;;29.20;99.90;;;;;;5032418;28;20094;-78
2023/09/06 12:02:30;;;;;;;0.20;0.20;;;29.30;99.90;;;;;;5027082;28;19920;-78
2023/09/06 12:05:00;;;;;;;;;;;29.60;99.90;;;;;;5050501;28;20120;-79
2023/09/06 12:07:31;;;;;;;0.20;0.20;;;29.80;99.90;;;;;;5032330;28;19928;-78
2023/09/06 12:09:58;;;;;;;0.28;0.28;;;30.00;99.90;;;;;;5040213;28;20371;-78
2023/09/06 12:12:27;;;;;;;0.20;0.20;;;30.20;99.90;;;;;;5012913;28;20052;-79
2023/09/06 12:14:53;;;;;;;0.20;0.20;;;30.40;99.90;;;;;;5027458;28;20136;-77
2023/09/06 12:17:19;;;;;;;0.20;0.20;;;30.60;99.90;;;;;;5026667;28;20047;-78
2023/09/06 12:19:45;;;;;;;0.20;0.20;;;30.80;99.90;;;;;;5029620;28;20374;-80
2023/09/06 12:22:17;;;;;;;0.20;0.20;;;31.00;98.50;;;;;;5031227;28;20041;-78
2023/09/06 12:24:46;;;;;;;0.20;0.20;;;31.10;97.50;;;;;;5047474;28;20114;-78
2023/09/06 12:27:15;;;;;;;0.20;0.20;;;31.30;98.10;;;;;;5029970;28;20473;-78
2023/09/06 12:29:42;;;;;;;0.20;0.20;;;31.50;97.40;;;;;;5033889;28;20079;-79
2023/09/06 12:32:08;;;;;;;0.22;0.22;;;31.80;99.60;;;;;;5049278;28;20492;-78
2023/09/06 12:34:33;;;;;;;0.20;0.20;;;31.80;97.90;;;;;;5048147;28;20123;-79
2023/09/06 12:36:59;;;;;;;0.20;0.20;;;32.00;97.90;;;;;;5028560;28;20047;-78
2023/09/06 12:39:25;;;;;;;0.20;0.20;;;32.10;97.80;;;;;;5048841;28;20089;-78
2023/09/06 12:41:51;;;;;;;0.30;0.30;;;32.30;98.00;;;;;;5048686;28;20534;-78
2023/09/06 12:44:16;;;;;;;0.20;0.20;;;32.50;97.80;;;;;;5048108;28;20380;-79
2023/09/06 12:46:42;;;;;;;0.20;0.20;;;32.70;97.20;;;;;;5049593;28;20044;-79
2023/09/06 12:49:08;;;;;;;0.20;0.20;;;32.90;97.00;;;;;;5034374;28;20043;-78
2023/09/06 12:51:33;;;;;;;0.20;0.20;;;33.00;95.90;;;;;;5031027;28;20057;-78
2023/09/06 12:53:59;;;;;;;0.20;0.20;;;33.10;96.10;;;;;;5049310;28;20045;-79